createdAt,value
2022-07-31T00:00:28.392Z,21.20
2022-07-31T00:01:31.157Z,21.22
2022-07-31T00:02:33.335Z,21.20
2022-07-31T00:03:36.220Z,21.20
2022-07-31T00:04:38.562Z,21.21
2022-07-31T00:05:41.911Z,21.17
2022-07-31T00:06:44.952Z,21.19
2022-07-31T00:07:47.019Z,21.19
2022-07-31T00:08:49.376Z,21.19
2022-07-31T00:09:53.641Z,21.19
2022-07-31T00:10:56.153Z,21.22
2022-07-31T00:11:58.588Z,21.14
2022-07-31T00:13:01.486Z,21.14
2022-07-31T00:14:03.574Z,21.23
2022-07-31T00:15:08.403Z,21.25
2022-07-31T00:16:11.346Z,21.23
2022-07-31T00:17:13.417Z,21.19
2022-07-31T00:18:15.552Z,21.16
2022-07-31T00:19:17.816Z,21.11
2022-07-31T00:20:21.610Z,21.12
2022-07-31T00:21:23.680Z,21.13
2022-07-31T00:22:26.329Z,21.14
2022-07-31T00:23:29.197Z,21.14
2022-07-31T00:24:32.431Z,21.14
2022-07-31T00:25:35.262Z,21.16
2022-07-31T00:26:37.809Z,21.17
2022-07-31T00:27:41.353Z,21.17
2022-07-31T00:28:43.666Z,21.17
2022-07-31T00:29:45.732Z,21.14
2022-07-31T00:30:48.099Z,21.12
2022-07-31T00:31:50.667Z,21.09
2022-07-31T00:32:52.835Z,21.09
2022-07-31T00:33:55.016Z,21.11
2022-07-31T00:34:57.134Z,21.03
2022-07-31T00:35:59.392Z,21.01
2022-07-31T00:37:03.248Z,21.00
2022-07-31T00:38:26.138Z,20.99
2022-07-31T00:39:10.880Z,20.97
2022-07-31T00:40:16.011Z,20.93
2022-07-31T00:41:18.321Z,20.94
2022-07-31T00:42:24.241Z,20.95
2022-07-31T00:43:27.415Z,20.97
2022-07-31T00:44:31.544Z,21.00
2022-07-31T00:45:34.472Z,20.99
2022-07-31T00:46:41.142Z,20.92
2022-07-31T00:47:44.434Z,20.94
2022-07-31T00:48:46.619Z,20.96
2022-07-31T00:49:49.475Z,20.97
2022-07-31T00:50:52.138Z,20.88
2022-07-31T00:51:54.091Z,20.90
2022-07-31T00:52:57.265Z,20.84
2022-07-31T00:53:59.579Z,20.84
2022-07-31T00:55:01.937Z,20.81
2022-07-31T00:56:05.470Z,20.83
2022-07-31T00:57:07.805Z,20.83
2022-07-31T00:58:09.954Z,20.82
2022-07-31T00:59:12.006Z,20.82
2022-07-31T01:00:15.487Z,20.81
2022-07-31T01:01:19.471Z,20.83
2022-07-31T01:02:21.991Z,20.77
2022-07-31T01:03:24.180Z,20.70
2022-07-31T01:04:26.754Z,20.71
2022-07-31T01:05:30.278Z,20.66
2022-07-31T01:06:32.801Z,20.69
2022-07-31T01:07:37.192Z,20.62
2022-07-31T01:08:39.778Z,20.64
2022-07-31T01:09:41.915Z,20.62
2022-07-31T01:11:03.322Z,20.61
2022-07-31T01:12:13.464Z,20.58
2022-07-31T01:13:19.295Z,20.55
2022-07-31T01:14:25.101Z,20.56
2022-07-31T01:15:29.045Z,20.55
2022-07-31T01:16:35.713Z,20.56
2022-07-31T01:17:41.049Z,20.57
2022-07-31T01:18:44.471Z,20.56
2022-07-31T01:19:51.120Z,20.46
2022-07-31T01:20:56.747Z,20.45
2022-07-31T01:22:33.630Z,20.43
2022-07-31T01:23:42.621Z,20.46
2022-07-31T01:24:57.679Z,20.47
2022-07-31T01:26:21.584Z,20.40
2022-07-31T01:27:51.885Z,20.41
2022-07-31T01:29:06.719Z,20.40
2022-07-31T01:30:10.629Z,20.41
2022-07-31T01:31:27.619Z,20.41
2022-07-31T01:32:27.766Z,20.41
2022-07-31T01:33:35.519Z,20.43
2022-07-31T01:34:51.763Z,20.38
2022-07-31T01:35:57.750Z,20.32
2022-07-31T01:37:40.054Z,20.35
2022-07-31T01:38:45.915Z,20.37
2022-07-31T01:39:52.770Z,20.29
2022-07-31T01:42:15.591Z,20.38
2022-07-31T01:43:25.170Z,20.25
2022-07-31T01:44:29.557Z,20.19
2022-07-31T01:45:33.159Z,20.21
2022-07-31T01:46:41.711Z,20.21
2022-07-31T01:47:43.658Z,20.16
2022-07-31T01:48:47.952Z,20.19
2022-07-31T01:49:54.270Z,20.18
2022-07-31T01:50:59.838Z,20.11
2022-07-31T01:52:04.594Z,20.15
2022-07-31T01:53:09.713Z,20.17
2022-07-31T01:54:15.001Z,20.12
2022-07-31T01:55:17.700Z,20.11
2022-07-31T01:56:22.471Z,20.09
2022-07-31T01:57:26.860Z,20.06
2022-07-31T01:58:33.846Z,20.05
2022-07-31T01:59:42.550Z,19.99
2022-07-31T02:00:48.797Z,20.00
2022-07-31T02:01:52.673Z,20.00
2022-07-31T02:02:56.400Z,19.99
2022-07-31T02:04:01.823Z,20.02
2022-07-31T02:05:07.255Z,20.01
2022-07-31T02:06:14.386Z,20.04
2022-07-31T02:07:18.459Z,20.00
2022-07-31T02:08:22.325Z,20.06
2022-07-31T02:09:28.278Z,20.07
2022-07-31T02:10:31.857Z,20.08
2022-07-31T02:11:35.810Z,20.07
2022-07-31T02:12:41.431Z,20.03
2022-07-31T02:13:47.091Z,20.05
2022-07-31T02:14:51.136Z,20.05
2022-07-31T02:15:56.001Z,19.95
2022-07-31T02:16:59.771Z,19.89
2022-07-31T02:18:04.878Z,19.90
2022-07-31T02:19:10.761Z,19.94
2022-07-31T02:20:16.199Z,19.93
2022-07-31T02:21:18.863Z,19.98
2022-07-31T02:22:21.446Z,19.98
2022-07-31T02:23:25.925Z,19.95
2022-07-31T02:24:29.354Z,19.97
2022-07-31T02:25:34.656Z,19.95
2022-07-31T02:26:39.680Z,19.93
2022-07-31T02:27:53.921Z,19.93
2022-07-31T02:28:50.730Z,19.92
2022-07-31T02:29:56.568Z,19.90
2022-07-31T02:31:03.118Z,19.86
2022-07-31T02:32:08.077Z,19.89
2022-07-31T02:33:23.873Z,19.85
2022-07-31T02:34:29.896Z,19.90
2022-07-31T02:35:33.118Z,19.85
2022-07-31T02:36:36.980Z,19.82
2022-07-31T02:37:43.604Z,19.79
2022-07-31T02:38:47.964Z,19.70
2022-07-31T02:39:54.323Z,19.76
2022-07-31T02:40:59.497Z,19.82
2022-07-31T02:42:05.021Z,19.83
2022-07-31T02:43:10.156Z,19.76
2022-07-31T02:44:14.310Z,19.76
2022-07-31T02:45:18.746Z,19.80
2022-07-31T02:46:22.842Z,19.76
2022-07-31T02:47:26.299Z,19.81
2022-07-31T02:48:30.331Z,19.81
2022-07-31T02:49:35.437Z,19.78
2022-07-31T02:50:40.657Z,19.75
2022-07-31T02:51:43.621Z,19.76
2022-07-31T02:52:47.495Z,19.77
2022-07-31T02:53:50.836Z,19.75
2022-07-31T02:54:54.518Z,19.74
2022-07-31T02:56:00.114Z,19.76
2022-07-31T02:57:03.974Z,19.84
2022-07-31T02:58:07.607Z,19.85
2022-07-31T02:59:10.790Z,19.85
2022-07-31T03:00:23.859Z,19.84
2022-07-31T03:01:28.548Z,19.81
2022-07-31T03:02:36.873Z,19.79
2022-07-31T03:03:35.697Z,19.76
2022-07-31T03:04:37.874Z,19.77
2022-07-31T03:05:40.297Z,19.75
2022-07-31T03:06:42.815Z,19.77
2022-07-31T03:07:45.274Z,19.79
2022-07-31T03:08:47.942Z,19.77
2022-07-31T03:09:51.933Z,19.76
2022-07-31T03:11:01.888Z,19.75
2022-07-31T03:12:05.230Z,19.72
2022-07-31T03:13:10.094Z,19.74
2022-07-31T03:14:15.591Z,19.78
2022-07-31T03:15:21.271Z,19.76
2022-07-31T03:16:25.994Z,19.77
2022-07-31T03:17:38.213Z,19.73
2022-07-31T03:18:34.949Z,19.75
2022-07-31T03:19:37.534Z,19.76
2022-07-31T03:20:43.022Z,19.76
2022-07-31T03:21:46.295Z,19.74
2022-07-31T03:22:50.708Z,19.77
2022-07-31T03:23:55.522Z,19.81
2022-07-31T03:24:59.155Z,19.77
2022-07-31T03:26:03.678Z,19.75
2022-07-31T03:27:06.784Z,19.75
2022-07-31T03:28:10.098Z,19.74
2022-07-31T03:29:42.635Z,19.71
2022-07-31T03:30:18.200Z,19.78
2022-07-31T03:31:21.170Z,19.79
2022-07-31T03:32:23.424Z,19.81
2022-07-31T03:33:25.799Z,19.81
2022-07-31T03:34:28.048Z,19.85
2022-07-31T03:35:30.510Z,19.80
2022-07-31T03:36:33.493Z,19.85
2022-07-31T03:37:35.992Z,19.80
2022-07-31T03:38:42.301Z,19.80
2022-07-31T03:39:43.756Z,19.85
2022-07-31T03:40:47.681Z,19.88
2022-07-31T03:41:51.642Z,19.92
2022-07-31T03:42:55.811Z,19.95
2022-07-31T03:43:59.040Z,19.95
2022-07-31T03:45:03.337Z,19.89
2022-07-31T03:46:07.246Z,19.93
2022-07-31T03:47:09.746Z,19.93
2022-07-31T03:48:12.656Z,19.98
2022-07-31T03:49:15.539Z,19.99
2022-07-31T03:50:19.462Z,20.00
2022-07-31T03:51:22.303Z,20.00
2022-07-31T03:52:25.297Z,20.01
2022-07-31T03:53:28.588Z,20.00
2022-07-31T03:54:30.819Z,20.03
2022-07-31T03:55:38.957Z,20.00
2022-07-31T03:56:45.548Z,20.04
2022-07-31T03:57:49.183Z,20.05
2022-07-31T03:58:52.741Z,20.04
2022-07-31T03:59:57.405Z,20.04
2022-07-31T04:01:00.820Z,20.06
2022-07-31T04:02:10.728Z,20.02
2022-07-31T04:03:16.992Z,20.03
2022-07-31T04:04:26.620Z,20.06
2022-07-31T04:05:34.197Z,20.11
2022-07-31T04:06:37.828Z,20.14
2022-07-31T04:07:40.058Z,20.15
2022-07-31T04:08:42.307Z,20.11
2022-07-31T04:09:44.771Z,20.13
2022-07-31T04:10:48.834Z,20.16
2022-07-31T04:11:52.863Z,20.11
2022-07-31T04:12:55.186Z,20.10
2022-07-31T04:13:57.923Z,20.15
2022-07-31T04:14:59.986Z,20.16
2022-07-31T04:16:03.361Z,20.20
2022-07-31T04:17:06.435Z,20.17
2022-07-31T04:18:09.403Z,20.20
2022-07-31T04:19:16.424Z,20.20
2022-07-31T04:20:20.482Z,20.22
2022-07-31T04:21:22.859Z,20.22
2022-07-31T04:22:26.333Z,20.25
2022-07-31T04:23:32.231Z,20.26
2022-07-31T04:24:53.577Z,20.31
2022-07-31T04:26:20.048Z,20.27
2022-07-31T04:27:19.335Z,20.32
2022-07-31T04:28:22.364Z,20.34
2022-07-31T04:29:24.836Z,20.36
2022-07-31T04:30:29.043Z,20.38
2022-07-31T04:31:31.127Z,20.36
2022-07-31T04:32:35.260Z,20.44
2022-07-31T04:33:48.725Z,20.49
2022-07-31T04:34:44.337Z,20.51
2022-07-31T04:35:47.069Z,20.57
2022-07-31T04:36:50.185Z,20.52
2022-07-31T04:37:52.366Z,20.59
2022-07-31T04:38:55.928Z,20.72
2022-07-31T04:39:58.016Z,20.72
2022-07-31T04:41:00.249Z,20.72
2022-07-31T04:42:03.409Z,20.78
2022-07-31T04:43:07.758Z,20.78
2022-07-31T04:44:10.644Z,20.84
2022-07-31T04:45:17.719Z,20.84
2022-07-31T04:46:20.030Z,20.89
2022-07-31T04:47:22.232Z,20.93
2022-07-31T04:48:26.234Z,20.98
2022-07-31T04:49:30.981Z,21.00
2022-07-31T04:50:35.840Z,21.05
2022-07-31T04:51:38.403Z,21.05
2022-07-31T04:52:41.276Z,21.07
2022-07-31T04:53:46.053Z,21.08
2022-07-31T04:54:48.477Z,21.12
2022-07-31T04:55:50.864Z,21.15
2022-07-31T04:56:53.900Z,21.19
2022-07-31T04:57:56.471Z,21.17
2022-07-31T04:59:01.762Z,21.22
2022-07-31T05:00:06.090Z,21.21
2022-07-31T05:01:08.584Z,21.25
2022-07-31T05:02:12.207Z,21.30
2022-07-31T05:03:15.418Z,21.33
2022-07-31T05:04:18.523Z,21.36
2022-07-31T05:05:20.714Z,21.42
2022-07-31T05:06:32.162Z,21.46
2022-07-31T05:07:34.964Z,21.46
2022-07-31T05:08:39.856Z,21.55
2022-07-31T05:09:42.717Z,21.58
2022-07-31T05:10:45.467Z,21.58
2022-07-31T05:11:48.253Z,21.63
2022-07-31T05:12:50.764Z,21.72
2022-07-31T05:13:55.241Z,21.70
2022-07-31T05:14:59.058Z,21.75
2022-07-31T05:16:01.288Z,21.75
2022-07-31T05:17:03.979Z,21.78
2022-07-31T05:18:08.042Z,21.81
2022-07-31T05:19:23.785Z,21.83
2022-07-31T05:20:44.436Z,21.84
2022-07-31T05:21:58.118Z,21.82
2022-07-31T05:23:16.674Z,21.85
2022-07-31T05:24:22.657Z,21.88
2022-07-31T05:25:33.926Z,21.89
2022-07-31T05:26:37.888Z,21.88
2022-07-31T05:27:41.400Z,21.90
2022-07-31T05:28:44.377Z,21.85
2022-07-31T05:29:48.562Z,21.83
2022-07-31T05:30:51.506Z,21.92
2022-07-31T05:32:00.062Z,21.96
2022-07-31T05:32:57.741Z,21.97
2022-07-31T05:34:00.604Z,22.00
2022-07-31T05:35:03.013Z,22.05
2022-07-31T05:36:06.727Z,22.06
2022-07-31T05:37:09.431Z,22.05
2022-07-31T05:38:12.617Z,22.12
2022-07-31T05:39:16.722Z,22.15
2022-07-31T05:40:33.109Z,22.17
2022-07-31T05:41:52.518Z,22.15
2022-07-31T05:43:11.623Z,22.18
2022-07-31T05:44:32.518Z,22.21
2022-07-31T05:45:35.601Z,22.22
2022-07-31T05:46:39.700Z,22.28
2022-07-31T05:47:42.780Z,22.33
2022-07-31T05:48:45.288Z,22.38
2022-07-31T05:49:47.610Z,22.41
2022-07-31T05:50:51.915Z,22.42
2022-07-31T05:51:55.340Z,22.49
2022-07-31T05:52:58.634Z,22.56
2022-07-31T05:54:19.493Z,22.62
2022-07-31T05:55:41.828Z,22.74
2022-07-31T05:56:55.130Z,22.79
2022-07-31T05:57:59.642Z,22.88
2022-07-31T05:59:02.414Z,22.96
2022-07-31T06:00:05.844Z,23.04
2022-07-31T06:01:13.902Z,23.06
2022-07-31T06:02:17.730Z,23.10
2022-07-31T06:03:38.411Z,23.17
2022-07-31T06:04:42.781Z,23.19
2022-07-31T06:05:45.154Z,23.15
2022-07-31T06:06:47.891Z,23.14
2022-07-31T06:07:51.195Z,23.18
2022-07-31T06:08:55.330Z,23.17
2022-07-31T06:09:57.570Z,23.21
2022-07-31T06:11:00.026Z,23.22
2022-07-31T06:12:03.919Z,23.19
2022-07-31T06:13:06.462Z,23.20
2022-07-31T06:14:08.629Z,23.19
2022-07-31T06:15:35.791Z,23.23
2022-07-31T06:16:35.594Z,23.28
2022-07-31T06:17:43.781Z,23.31
2022-07-31T06:18:44.733Z,23.35
2022-07-31T06:19:47.478Z,23.33
2022-07-31T06:20:51.040Z,23.31
2022-07-31T06:21:54.020Z,23.34
2022-07-31T06:22:58.174Z,23.36
2022-07-31T06:24:02.894Z,23.35
2022-07-31T06:25:11.906Z,23.35
2022-07-31T06:26:17.030Z,23.45
2022-07-31T06:27:33.923Z,23.45
2022-07-31T06:28:48.046Z,23.51
2022-07-31T06:29:41.916Z,23.55
2022-07-31T06:30:35.494Z,23.63
2022-07-31T06:31:38.733Z,23.68
2022-07-31T06:32:41.347Z,23.70
2022-07-31T06:33:43.416Z,23.75
2022-07-31T06:34:47.420Z,23.78
2022-07-31T06:35:50.063Z,23.80
2022-07-31T06:37:00.420Z,23.86
2022-07-31T06:38:02.882Z,23.91
2022-07-31T06:39:06.925Z,23.96
2022-07-31T06:40:15.121Z,23.99
2022-07-31T06:41:38.853Z,24.02
2022-07-31T06:42:43.153Z,24.03
2022-07-31T06:43:47.363Z,24.03
2022-07-31T06:45:09.390Z,24.08
2022-07-31T06:46:31.202Z,24.07
2022-07-31T06:47:52.095Z,24.12
2022-07-31T06:48:59.062Z,24.17
2022-07-31T06:50:01.328Z,24.15
2022-07-31T06:52:14.144Z,24.17
2022-07-31T06:53:16.498Z,24.17
2022-07-31T06:54:19.074Z,24.19
2022-07-31T06:55:23.046Z,24.23
2022-07-31T06:56:28.552Z,24.28
2022-07-31T06:57:31.086Z,24.32
2022-07-31T06:58:33.423Z,24.30
2022-07-31T06:59:40.229Z,24.34
2022-07-31T07:00:42.759Z,24.34
2022-07-31T07:01:45.150Z,24.40
2022-07-31T07:02:48.692Z,24.39
2022-07-31T07:03:51.079Z,24.44
2022-07-31T07:05:05.241Z,24.49
2022-07-31T07:05:58.060Z,24.50
2022-07-31T07:07:00.725Z,24.51
2022-07-31T07:08:03.427Z,24.52
2022-07-31T07:09:06.272Z,24.49
2022-07-31T07:10:09.046Z,24.50
2022-07-31T07:11:31.911Z,24.54
2022-07-31T07:12:34.775Z,24.59
2022-07-31T07:13:45.829Z,24.60
2022-07-31T07:14:41.935Z,24.63
2022-07-31T07:15:43.998Z,24.63
2022-07-31T07:16:47.954Z,24.66
2022-07-31T07:17:51.342Z,24.67
2022-07-31T07:18:55.976Z,24.64
2022-07-31T07:19:59.283Z,24.67
2022-07-31T07:21:01.744Z,24.73
2022-07-31T07:22:05.808Z,24.78
2022-07-31T07:23:08.407Z,24.75
2022-07-31T07:24:15.389Z,24.80
2022-07-31T07:25:22.458Z,24.77
2022-07-31T07:26:26.563Z,24.79
2022-07-31T07:27:29.503Z,24.82
2022-07-31T07:28:31.711Z,24.84
2022-07-31T07:29:36.043Z,24.88
2022-07-31T07:30:39.303Z,24.93
2022-07-31T07:31:41.752Z,24.91
2022-07-31T07:32:43.840Z,24.95
2022-07-31T07:33:47.110Z,24.99
2022-07-31T07:34:59.967Z,25.04
2022-07-31T07:35:57.648Z,25.07
2022-07-31T07:37:00.625Z,25.06
2022-07-31T07:38:05.275Z,25.12
2022-07-31T07:39:09.263Z,25.09
2022-07-31T07:40:12.323Z,25.13
2022-07-31T07:41:15.061Z,25.13
2022-07-31T07:42:19.173Z,25.13
2022-07-31T07:43:21.352Z,25.16
2022-07-31T07:44:24.678Z,25.19
2022-07-31T07:45:27.619Z,25.20
2022-07-31T07:46:31.074Z,25.22
2022-07-31T07:47:53.869Z,25.26
2022-07-31T07:48:40.943Z,25.29
2022-07-31T07:49:45.058Z,25.30
2022-07-31T07:50:49.243Z,25.30
2022-07-31T07:52:00.730Z,25.26
2022-07-31T07:53:18.093Z,25.24
2022-07-31T07:54:39.750Z,25.26
2022-07-31T07:55:48.590Z,25.33
2022-07-31T07:57:19.759Z,25.28
2022-07-31T07:58:38.883Z,25.34
2022-07-31T08:00:54.069Z,25.47
2022-07-31T08:01:57.842Z,25.35
2022-07-31T08:03:02.902Z,25.33
2022-07-31T08:04:12.176Z,25.36
2022-07-31T08:05:16.760Z,25.36
2022-07-31T08:06:20.755Z,25.42
2022-07-31T08:07:42.263Z,25.41
2022-07-31T08:08:36.080Z,25.45
2022-07-31T08:09:56.214Z,25.46
2022-07-31T08:11:06.590Z,25.48
2022-07-31T08:12:20.113Z,25.55
2022-07-31T08:13:33.405Z,25.54
2022-07-31T08:14:53.986Z,25.56
2022-07-31T08:16:07.889Z,25.58
2022-07-31T08:17:13.067Z,25.63
2022-07-31T08:18:16.050Z,25.61
2022-07-31T08:19:19.177Z,25.58
2022-07-31T08:20:21.855Z,25.66
2022-07-31T08:21:26.109Z,25.66
2022-07-31T08:22:28.189Z,25.74
2022-07-31T08:23:30.549Z,25.76
2022-07-31T08:24:33.419Z,25.81
2022-07-31T08:25:35.973Z,25.84
2022-07-31T08:26:41.419Z,25.85
2022-07-31T08:27:43.691Z,25.85
2022-07-31T08:28:49.717Z,25.91
2022-07-31T08:29:55.935Z,25.95
2022-07-31T08:31:00.561Z,25.97
2022-07-31T08:32:03.338Z,25.93
2022-07-31T08:33:16.644Z,25.92
2022-07-31T08:34:31.246Z,25.95
2022-07-31T08:35:25.044Z,26.01
2022-07-31T08:36:28.373Z,26.07
2022-07-31T08:38:02.770Z,26.09
2022-07-31T08:38:37.514Z,26.12
2022-07-31T08:39:59.215Z,26.13
2022-07-31T08:41:03.002Z,26.11
2022-07-31T08:42:09.260Z,26.13
2022-07-31T08:44:00.300Z,26.18
2022-07-31T08:44:18.568Z,26.22
2022-07-31T08:45:22.811Z,26.27
2022-07-31T08:46:32.786Z,26.28
2022-07-31T08:47:35.501Z,26.25
2022-07-31T08:48:40.963Z,26.28
2022-07-31T08:49:45.704Z,26.33
2022-07-31T08:50:53.772Z,26.36
2022-07-31T08:52:24.625Z,26.34
2022-07-31T08:53:35.755Z,26.41
2022-07-31T08:54:44.257Z,26.45
2022-07-31T08:55:55.106Z,26.46
2022-07-31T08:58:11.578Z,26.47
2022-07-31T08:59:14.292Z,26.52
2022-07-31T09:00:18.596Z,26.56
2022-07-31T09:01:22.956Z,26.56
2022-07-31T09:02:25.352Z,26.57
2022-07-31T09:03:46.088Z,26.62
2022-07-31T09:04:52.596Z,26.70
2022-07-31T09:05:54.468Z,26.76
2022-07-31T09:06:57.609Z,26.76
2022-07-31T09:08:00.010Z,26.72
2022-07-31T09:09:04.750Z,26.69
2022-07-31T09:10:26.551Z,26.75
2022-07-31T09:13:13.164Z,26.75
2022-07-31T09:14:28.150Z,26.75
2022-07-31T09:15:31.063Z,26.69
2022-07-31T09:16:44.209Z,26.78
2022-07-31T09:17:48.723Z,26.86
2022-07-31T09:19:02.751Z,26.89
2022-07-31T09:20:11.252Z,26.92
2022-07-31T09:21:14.021Z,26.89
2022-07-31T09:22:24.388Z,26.92
2022-07-31T09:23:27.887Z,26.87
2022-07-31T09:24:39.438Z,26.86
2022-07-31T09:25:37.896Z,26.92
2022-07-31T09:26:41.499Z,26.94
2022-07-31T09:27:46.422Z,26.93
2022-07-31T09:28:48.806Z,26.97
2022-07-31T09:29:51.267Z,26.99
2022-07-31T09:31:03.055Z,27.06
2022-07-31T09:32:16.495Z,27.15
2022-07-31T09:33:40.279Z,27.17
2022-07-31T09:34:46.066Z,27.19
2022-07-31T09:35:52.267Z,27.14
2022-07-31T09:36:54.857Z,27.17
2022-07-31T09:38:17.235Z,27.23
2022-07-31T09:39:35.944Z,27.28
2022-07-31T09:40:57.120Z,27.24
2022-07-31T09:42:16.289Z,27.37
2022-07-31T09:43:34.357Z,27.40
2022-07-31T09:44:41.154Z,27.40
2022-07-31T09:45:48.193Z,27.37
2022-07-31T09:46:50.967Z,27.40
2022-07-31T09:48:07.568Z,27.41
2022-07-31T09:49:10.121Z,27.45
2022-07-31T09:50:16.445Z,27.48
2022-07-31T09:51:18.996Z,27.52
2022-07-31T09:52:22.330Z,27.58
2022-07-31T09:53:25.502Z,27.61
2022-07-31T09:54:31.608Z,27.64
2022-07-31T09:55:36.595Z,27.68
2022-07-31T09:56:40.439Z,27.74
2022-07-31T09:57:54.097Z,27.78
2022-07-31T09:58:57.900Z,27.68
2022-07-31T10:00:00.172Z,27.75
2022-07-31T10:01:03.684Z,27.80
2022-07-31T10:02:08.360Z,27.77
2022-07-31T10:03:16.605Z,27.74
2022-07-31T10:04:21.607Z,27.66
2022-07-31T10:05:26.593Z,27.73
2022-07-31T10:06:33.919Z,27.82
2022-07-31T10:07:39.269Z,27.87
2022-07-31T10:08:49.707Z,27.97
2022-07-31T10:10:06.079Z,28.04
2022-07-31T10:11:16.427Z,28.08
2022-07-31T10:12:19.190Z,28.13
2022-07-31T10:13:23.394Z,28.14
2022-07-31T10:14:33.479Z,28.10
2022-07-31T10:15:40.202Z,28.13
2022-07-31T10:17:03.690Z,28.08
2022-07-31T10:18:18.982Z,28.13
2022-07-31T10:19:32.885Z,28.15
2022-07-31T10:20:55.264Z,28.19
2022-07-31T10:22:06.588Z,28.25
2022-07-31T10:23:21.363Z,28.29
2022-07-31T10:24:28.546Z,28.27
2022-07-31T10:25:35.975Z,28.32
2022-07-31T10:26:59.809Z,28.28
2022-07-31T10:27:45.512Z,28.32
2022-07-31T10:28:49.397Z,28.33
2022-07-31T10:29:53.525Z,28.40
2022-07-31T10:30:57.016Z,28.43
2022-07-31T10:32:00.278Z,28.39
2022-07-31T10:33:04.628Z,28.35
2022-07-31T10:34:17.799Z,28.30
2022-07-31T10:35:55.700Z,28.37
2022-07-31T10:37:17.129Z,28.45
2022-07-31T10:38:47.224Z,28.46
2022-07-31T10:41:47.430Z,28.63
2022-07-31T10:43:13.137Z,28.61
2022-07-31T10:44:29.539Z,28.69
2022-07-31T10:45:50.955Z,28.72
2022-07-31T10:46:55.575Z,28.66
2022-07-31T10:48:01.638Z,28.60
2022-07-31T10:49:39.620Z,28.64
2022-07-31T10:51:02.669Z,28.75
2022-07-31T10:52:07.172Z,28.76
2022-07-31T10:53:18.445Z,28.74
2022-07-31T10:54:31.687Z,28.84
2022-07-31T10:55:38.559Z,28.94
2022-07-31T10:56:46.225Z,29.00
2022-07-31T10:58:10.587Z,28.99
2022-07-31T10:59:14.578Z,29.13
2022-07-31T11:00:34.665Z,29.08
2022-07-31T11:01:55.289Z,29.13
2022-07-31T11:03:19.530Z,29.11
2022-07-31T11:04:40.494Z,29.07
2022-07-31T11:06:00.956Z,29.22
2022-07-31T11:07:15.996Z,29.27
2022-07-31T11:08:42.412Z,29.39
2022-07-31T11:09:50.616Z,29.44
2022-07-31T11:11:13.976Z,29.48
2022-07-31T11:12:21.041Z,29.62
2022-07-31T11:13:49.732Z,29.46
2022-07-31T11:15:22.261Z,29.61
2022-07-31T11:16:30.062Z,29.66
2022-07-31T11:18:20.992Z,29.64
2022-07-31T11:19:04.190Z,29.58
2022-07-31T11:20:30.349Z,29.40
2022-07-31T11:21:41.272Z,29.44
2022-07-31T11:23:01.782Z,29.48
2022-07-31T11:24:18.842Z,29.54
2022-07-31T11:25:21.584Z,29.71
2022-07-31T11:26:33.561Z,29.76
2022-07-31T11:27:32.606Z,29.93
2022-07-31T11:28:35.480Z,30.07
2022-07-31T11:29:58.993Z,30.18
2022-07-31T11:30:50.283Z,30.17
2022-07-31T11:31:52.743Z,30.24
2022-07-31T11:32:54.860Z,30.22
2022-07-31T11:34:00.752Z,30.28
2022-07-31T11:35:04.121Z,30.23
2022-07-31T11:36:10.541Z,30.36
2022-07-31T11:37:30.579Z,30.46
2022-07-31T11:38:40.181Z,30.53
2022-07-31T11:39:43.873Z,30.68
2022-07-31T11:40:50.939Z,30.69
2022-07-31T11:41:55.837Z,30.57
2022-07-31T11:43:25.759Z,30.72
2022-07-31T11:44:03.503Z,30.76
2022-07-31T11:45:10.980Z,30.75
2022-07-31T11:46:14.274Z,30.69
2022-07-31T11:48:09.418Z,30.77
2022-07-31T11:48:22.472Z,30.78
2022-07-31T11:49:39.218Z,30.78
2022-07-31T11:50:42.866Z,31.01
2022-07-31T11:51:47.615Z,31.17
2022-07-31T11:52:49.786Z,31.30
2022-07-31T11:53:57.438Z,31.41
2022-07-31T11:55:09.033Z,31.30
2022-07-31T11:56:14.343Z,31.34
2022-07-31T11:57:16.570Z,31.30
2022-07-31T11:58:20.731Z,31.26
2022-07-31T11:59:45.660Z,31.42
2022-07-31T12:00:50.091Z,31.26
2022-07-31T12:01:54.155Z,31.31
2022-07-31T12:02:56.907Z,31.28
2022-07-31T12:04:07.551Z,31.43
2022-07-31T12:05:03.877Z,31.44
2022-07-31T12:06:08.516Z,31.44
2022-07-31T12:07:12.523Z,31.58
2022-07-31T12:08:15.740Z,31.50
2022-07-31T12:10:02.261Z,31.66
2022-07-31T12:10:23.901Z,31.87
2022-07-31T12:11:26.549Z,31.92
2022-07-31T12:12:28.880Z,31.89
2022-07-31T12:13:32.505Z,32.04
2022-07-31T12:14:37.630Z,31.96
2022-07-31T12:15:39.680Z,32.04
2022-07-31T12:16:43.172Z,31.77
2022-07-31T12:17:46.765Z,31.80
2022-07-31T12:18:54.012Z,31.81
2022-07-31T12:19:59.886Z,31.62
2022-07-31T12:21:03.980Z,31.73
2022-07-31T12:22:14.241Z,31.65
2022-07-31T12:23:38.412Z,31.76
2022-07-31T12:24:21.420Z,31.96
2022-07-31T12:25:23.464Z,32.16
2022-07-31T12:26:29.654Z,32.22
2022-07-31T12:27:31.968Z,32.36
2022-07-31T12:28:34.050Z,32.44
2022-07-31T12:29:38.151Z,32.56
2022-07-31T12:30:41.639Z,32.65
2022-07-31T12:31:53.175Z,32.51
2022-07-31T12:33:07.038Z,32.68
2022-07-31T12:34:09.126Z,32.68
2022-07-31T12:35:15.217Z,32.52
2022-07-31T12:36:18.419Z,32.52
2022-07-31T12:37:20.481Z,32.58
2022-07-31T12:38:40.810Z,32.74
2022-07-31T12:39:47.462Z,32.84
2022-07-31T12:40:36.682Z,32.83
2022-07-31T12:41:42.831Z,32.73
2022-07-31T12:42:44.983Z,32.45
2022-07-31T12:43:51.539Z,32.53
2022-07-31T12:44:53.278Z,32.50
2022-07-31T12:45:55.299Z,32.36
2022-07-31T12:46:57.820Z,32.37
2022-07-31T12:48:00.188Z,32.54
2022-07-31T12:49:04.260Z,32.67
2022-07-31T12:50:07.491Z,32.82
2022-07-31T12:51:09.620Z,32.96
2022-07-31T12:52:11.745Z,32.91
2022-07-31T12:53:13.934Z,32.86
2022-07-31T12:54:16.961Z,32.88
2022-07-31T12:55:19.774Z,32.53
2022-07-31T12:56:24.089Z,32.33
2022-07-31T12:57:34.125Z,32.18
2022-07-31T12:58:37.426Z,32.31
2022-07-31T12:59:40.226Z,32.22
2022-07-31T13:00:42.517Z,32.38
2022-07-31T13:01:45.705Z,32.39
2022-07-31T13:02:48.050Z,32.34
2022-07-31T13:03:50.761Z,32.41
2022-07-31T13:04:53.855Z,32.45
2022-07-31T13:05:55.991Z,32.45
2022-07-31T13:06:58.664Z,32.29
2022-07-31T13:08:00.720Z,32.44
2022-07-31T13:09:04.415Z,32.48
2022-07-31T13:10:21.702Z,32.58
2022-07-31T13:11:12.658Z,32.33
2022-07-31T13:12:15.739Z,32.43
2022-07-31T13:13:20.116Z,32.60
2022-07-31T13:14:22.767Z,32.77
2022-07-31T13:15:25.933Z,32.79
2022-07-31T13:16:29.857Z,32.84
2022-07-31T13:17:31.936Z,32.81
2022-07-31T13:18:35.399Z,32.58
2022-07-31T13:19:38.288Z,32.63
2022-07-31T13:20:40.583Z,32.76
2022-07-31T13:21:48.257Z,32.99
2022-07-31T13:22:47.514Z,33.10
2022-07-31T13:23:54.367Z,33.28
2022-07-31T13:24:55.860Z,33.51
2022-07-31T13:25:59.227Z,33.72
2022-07-31T13:27:01.680Z,33.79
2022-07-31T13:28:04.203Z,33.81
2022-07-31T13:29:06.807Z,33.87
2022-07-31T13:30:12.375Z,33.92
2022-07-31T13:31:14.593Z,33.91
2022-07-31T13:32:16.563Z,33.83
2022-07-31T13:33:18.499Z,33.71
2022-07-31T13:34:20.558Z,33.82
2022-07-31T13:35:27.457Z,33.84
2022-07-31T13:36:30.782Z,34.02
2022-07-31T13:37:32.661Z,34.18
2022-07-31T13:38:36.964Z,34.30
2022-07-31T13:39:39.026Z,34.45
2022-07-31T13:40:42.821Z,34.59
2022-07-31T13:41:44.963Z,34.69
2022-07-31T13:42:47.142Z,34.70
2022-07-31T13:44:00.458Z,34.86
2022-07-31T13:44:54.193Z,35.09
2022-07-31T13:45:57.543Z,35.22
2022-07-31T13:47:01.440Z,35.33
2022-07-31T13:48:09.254Z,35.45
2022-07-31T13:49:09.738Z,35.35
2022-07-31T13:50:14.071Z,35.32
2022-07-31T13:51:16.789Z,35.39
2022-07-31T13:52:21.727Z,35.40
2022-07-31T13:53:25.094Z,35.40
2022-07-31T13:54:28.924Z,35.50
2022-07-31T13:55:31.247Z,35.51
2022-07-31T13:56:42.194Z,35.25
2022-07-31T13:57:40.363Z,35.25
2022-07-31T13:58:42.548Z,35.35
2022-07-31T13:59:44.581Z,35.27
2022-07-31T14:00:47.374Z,35.40
2022-07-31T14:02:03.087Z,35.58
2022-07-31T14:02:54.029Z,35.73
2022-07-31T14:03:57.124Z,35.73
2022-07-31T14:05:00.352Z,35.74
2022-07-31T14:06:03.577Z,35.92
2022-07-31T14:07:07.503Z,35.86
2022-07-31T14:08:33.021Z,35.87
2022-07-31T14:09:16.028Z,36.13
2022-07-31T14:10:20.936Z,36.32
2022-07-31T14:11:22.537Z,36.45
2022-07-31T14:12:25.734Z,36.35
2022-07-31T14:13:28.952Z,36.09
2022-07-31T14:14:31.178Z,36.27
2022-07-31T14:15:34.276Z,36.44
2022-07-31T14:16:36.512Z,36.60
2022-07-31T14:17:39.531Z,36.39
2022-07-31T14:18:42.564Z,36.27
2022-07-31T14:19:45.758Z,36.37